createdAt,value
2022-12-25T00:04:19.255Z,1.1
2022-12-25T00:09:17.560Z,1.2
2022-12-25T00:14:16.014Z,1.1
2022-12-25T00:19:13.989Z,0.9
2022-12-25T00:24:12.128Z,0.8
2022-12-25T00:29:09.970Z,0.7
2022-12-25T00:34:08.205Z,0.8
2022-12-25T00:39:06.519Z,0.9
2022-12-25T00:44:04.571Z,0.7
2022-12-25T00:49:02.640Z,0.6
2022-12-25T00:54:00.827Z,0.6
2022-12-25T00:58:48.551Z,0.7
2022-12-25T01:03:46.813Z,0.8
2022-12-25T01:08:45.161Z,0.6
2022-12-25T01:13:43.110Z,0.3
2022-12-25T01:18:41.336Z,0.2
2022-12-25T01:23:39.494Z,0
2022-12-25T01:28:37.950Z,-0.1
2022-12-25T01:33:36.152Z,0
2022-12-25T01:38:34.633Z,0
2022-12-25T01:43:33.076Z,0.1
2022-12-25T01:48:31.307Z,0.1
2022-12-25T01:53:29.484Z,0
2022-12-25T01:58:27.628Z,-0.2
2022-12-25T02:03:26.028Z,-0.3
2022-12-25T02:08:24.091Z,-0.3
2022-12-25T02:13:22.445Z,-0.2
2022-12-25T02:18:20.531Z,-0.4
2022-12-25T02:23:18.770Z,-0.4
2022-12-25T02:28:15.267Z,-0.3
2022-12-25T02:33:13.327Z,-0.3
2022-12-25T02:38:11.603Z,-0.5
2022-12-25T02:43:09.767Z,-0.5
2022-12-25T02:48:08.012Z,-0.5
2022-12-25T02:53:06.198Z,-0.7
2022-12-25T02:58:04.659Z,-0.8
2022-12-25T03:03:02.799Z,-1.1
2022-12-25T03:08:00.880Z,-1.2
2022-12-25T03:12:59.031Z,-1.4
2022-12-25T03:17:57.352Z,-1.7
2022-12-25T03:22:55.591Z,-1.7
2022-12-25T03:27:53.897Z,-1.9
2022-12-25T03:32:52.354Z,-1.7
2022-12-25T03:37:50.735Z,-1.6
2022-12-25T03:42:48.969Z,-1.3
2022-12-25T03:47:47.136Z,-1.2
2022-12-25T03:52:45.531Z,-1.2
2022-12-25T03:57:43.995Z,-1.1
2022-12-25T04:02:42.473Z,-1
2022-12-25T04:07:40.291Z,-1.3
2022-12-25T04:12:38.428Z,-1.4
2022-12-25T04:17:36.684Z,-1.5
2022-12-25T04:22:35.001Z,-1.6
2022-12-25T04:27:33.197Z,-1.7
2022-12-25T04:32:31.355Z,-1.8
2022-12-25T04:37:29.785Z,-1.7
2022-12-25T04:42:28.011Z,-1.8
2022-12-25T04:47:26.346Z,-2
2022-12-25T04:52:24.543Z,-2
2022-12-25T04:57:22.844Z,-2
2022-12-25T05:02:21.348Z,-2
2022-12-25T05:07:19.600Z,-2
2022-12-25T05:12:17.896Z,-2.2
2022-12-25T05:17:15.925Z,-2.3
2022-12-25T05:22:15.129Z,-2.3
2022-12-25T05:27:13.318Z,-2.2
2022-12-25T05:32:11.742Z,-2.2
2022-12-25T05:37:10.013Z,-2.1
2022-12-25T05:42:08.509Z,-2.2
2022-12-25T05:47:06.763Z,-2.3
2022-12-25T05:52:04.926Z,-2.3
2022-12-25T05:57:03.186Z,-2.4
2022-12-25T06:02:01.542Z,-2.5
2022-12-25T06:06:59.642Z,-2.6
2022-12-25T06:11:57.953Z,-2.7
2022-12-25T06:16:56.922Z,-2.6
2022-12-25T06:21:55.263Z,-2.6
2022-12-25T06:26:53.500Z,-2.5
2022-12-25T06:31:51.919Z,-2.3
2022-12-25T06:36:50.348Z,-2.2
2022-12-25T06:41:48.945Z,-1.7
2022-12-25T06:46:47.636Z,-1
2022-12-25T06:51:46.819Z,-0.5
2022-12-25T06:56:46.209Z,0.3
2022-12-25T07:01:45.126Z,1
2022-12-25T07:06:44.300Z,2.8
2022-12-25T07:11:44.371Z,5.1
2022-12-25T07:16:47.787Z,8.6
2022-12-25T07:21:43.045Z,6
2022-12-25T07:26:40.732Z,5.1
2022-12-25T07:31:40.220Z,7.3
2022-12-25T07:36:40.671Z,9.1
2022-12-25T07:41:40.298Z,10.1
2022-12-25T07:46:36.895Z,9
2022-12-25T07:51:35.289Z,9.4
2022-12-25T07:56:35.505Z,11.6
2022-12-25T08:01:36.590Z,12
2022-12-25T08:06:35.120Z,11.2
2022-12-25T08:11:31.685Z,9.6
2022-12-25T08:16:30.171Z,10.5
2022-12-25T08:21:31.471Z,13
2022-12-25T08:26:30.923Z,12.3
2022-12-25T08:31:28.423Z,11.8
2022-12-25T08:36:26.571Z,12
2022-12-25T08:41:27.131Z,14.1
2022-12-25T08:46:27.949Z,14.7
2022-12-25T08:51:24.280Z,13.4
2022-12-25T08:56:21.989Z,12.7
2022-12-25T09:01:20.571Z,13.5
2022-12-25T09:06:21.402Z,15.4
2022-12-25T09:11:19.646Z,15.3
2022-12-25T09:16:17.833Z,14.7
2022-12-25T09:21:16.729Z,14.9
2022-12-25T09:26:15.239Z,15.2
2022-12-25T09:31:14.465Z,15.7
2022-12-25T09:36:14.138Z,17.2
2022-12-25T09:41:15.159Z,19.8
2022-12-25T09:46:15.371Z,21
2022-12-25T09:51:12.761Z,19.1
2022-12-25T09:56:09.478Z,17.6
2022-12-25T10:01:07.645Z,17.9
2022-12-25T10:06:09.223Z,21.1
2022-12-25T10:11:10.507Z,22.7
2022-12-25T10:16:09.321Z,22.8
2022-12-25T10:21:12.738Z,22.8
2022-12-25T10:26:06.576Z,23.3
2022-12-25T10:31:05.272Z,24.3
2022-12-25T10:36:03.577Z,23.6
2022-12-25T10:41:01.848Z,23.2
2022-12-25T10:45:59.789Z,22.7
2022-12-25T10:50:57.561Z,22
2022-12-25T10:55:55.994Z,22
2022-12-25T11:00:54.349Z,20.8
2022-12-25T11:05:51.949Z,19.8
2022-12-25T11:10:50.373Z,19.6
2022-12-25T11:15:47.914Z,19
2022-12-25T11:20:47.222Z,18.2
2022-12-25T11:25:43.816Z,17.2
2022-12-25T11:30:41.124Z,15.8
2022-12-25T11:35:39.225Z,14.9
2022-12-25T11:40:37.336Z,14.9
2022-12-25T11:45:35.676Z,14.3
2022-12-25T11:50:33.553Z,13.6
2022-12-25T11:55:31.349Z,13.2
2022-12-25T12:00:29.037Z,12.5
2022-12-25T12:05:26.892Z,12
2022-12-25T12:10:25.060Z,11.6
2022-12-25T12:15:23.928Z,11.4
2022-12-25T12:20:22.446Z,11.2
2022-12-25T12:25:21.074Z,11
2022-12-25T12:30:19.052Z,10.8
2022-12-25T12:35:17.303Z,10.6
2022-12-25T12:40:15.604Z,10.3
2022-12-25T12:45:13.899Z,10.1
2022-12-25T12:50:11.897Z,9.3
2022-12-25T12:55:09.884Z,8.2
2022-12-25T13:00:10.172Z,7.7
2022-12-25T13:05:05.469Z,7
2022-12-25T13:10:06.615Z,6.4
2022-12-25T13:15:04.457Z,6.5
2022-12-25T13:20:03.264Z,6.3
2022-12-25T13:25:02.380Z,6.2
2022-12-25T13:30:00.799Z,5.9
2022-12-25T13:39:58.694Z,5.7
2022-12-25T13:44:57.341Z,5.4
2022-12-25T13:49:55.708Z,5.3
2022-12-25T13:54:54.364Z,5.2
2022-12-25T13:59:53.015Z,5.1
2022-12-25T14:04:52.504Z,4.9
2022-12-25T14:09:50.478Z,4.7
2022-12-25T14:14:49.049Z,4.4
2022-12-25T14:19:47.843Z,4.1
2022-12-25T14:24:46.623Z,4
2022-12-25T14:29:44.902Z,3.9
2022-12-25T14:34:43.446Z,3.7
2022-12-25T14:39:42.212Z,3.6
2022-12-25T14:44:41.077Z,3.5
2022-12-25T14:49:39.443Z,3.2
2022-12-25T14:54:38.027Z,3.1
2022-12-25T14:59:36.575Z,2.9
2022-12-25T15:04:35.319Z,2.7
2022-12-25T15:09:33.796Z,2.5
2022-12-25T15:14:32.351Z,2.3
2022-12-25T15:19:36.789Z,2.2
2022-12-25T15:24:29.229Z,2.1
2022-12-25T15:30:21.568Z,1.9
2022-12-25T15:34:25.946Z,1.8
2022-12-25T15:39:24.358Z,1.7
2022-12-25T15:44:25.414Z,1.8
2022-12-25T15:49:23.689Z,1.7
2022-12-25T15:54:22.331Z,1.6
2022-12-25T15:59:21.233Z,1.6
2022-12-25T16:04:20.041Z,1.6
2022-12-25T16:09:15.641Z,1.6
2022-12-25T16:14:14.087Z,1.7
2022-12-25T16:19:12.388Z,1.6
2022-12-25T16:24:10.742Z,1.8
2022-12-25T16:29:09.042Z,1.6
2022-12-25T16:34:07.314Z,1.8
2022-12-25T16:39:05.819Z,1.8
2022-12-25T16:44:04.075Z,1.8
2022-12-25T16:49:02.483Z,1.6
2022-12-25T16:54:00.659Z,1.5
2022-12-25T16:58:58.807Z,1.4
2022-12-25T17:03:57.378Z,1.3
2022-12-25T17:08:55.756Z,1.3
2022-12-25T17:13:53.999Z,1.2
2022-12-25T17:18:52.180Z,1.1
2022-12-25T17:23:50.594Z,1
2022-12-25T17:28:48.984Z,1
2022-12-25T17:33:47.209Z,0.9
2022-12-25T17:38:45.817Z,0.9
2022-12-25T17:43:44.622Z,0.8
2022-12-25T17:48:42.954Z,0.8
2022-12-25T17:53:41.835Z,0.8
2022-12-25T17:58:40.076Z,0.7
2022-12-25T18:03:38.601Z,0.7
2022-12-25T18:08:39.471Z,0.6
2022-12-25T18:13:35.065Z,0.6
2022-12-25T18:18:33.287Z,0.5
2022-12-25T18:23:31.781Z,0.6
2022-12-25T18:28:30.427Z,0.6
2022-12-25T18:33:28.583Z,0.6
2022-12-25T18:38:27.220Z,0.4
2022-12-25T18:43:51.692Z,0.4
2022-12-25T18:48:24.382Z,0.4
2022-12-25T18:53:22.987Z,0.3
2022-12-25T18:58:21.542Z,0.3
2022-12-25T19:03:19.979Z,0.3
2022-12-25T19:08:18.202Z,0.4
2022-12-25T19:13:16.995Z,0.4
2022-12-25T19:18:15.710Z,0.3
2022-12-25T19:23:14.350Z,0.2
2022-12-25T19:28:13.423Z,0.2
2022-12-25T19:33:17.398Z,0.2
2022-12-25T19:38:10.887Z,0.3
2022-12-25T19:43:09.300Z,0.2
2022-12-25T19:48:07.741Z,0.1
2022-12-25T19:53:06.183Z,0
2022-12-25T19:58:04.604Z,-0.1
2022-12-25T20:03:03.270Z,0
2022-12-25T20:08:02.054Z,-0.1
2022-12-25T20:13:00.512Z,-0.2
2022-12-25T20:17:58.630Z,-0.3
2022-12-25T20:22:57.070Z,-0.4
2022-12-25T20:27:55.655Z,-0.5
2022-12-25T20:32:54.155Z,-0.5
2022-12-25T20:37:52.886Z,-0.5
2022-12-25T20:42:51.256Z,-0.5
2022-12-25T20:47:50.039Z,-0.6
2022-12-25T20:52:48.463Z,-0.6
2022-12-25T20:57:46.906Z,-0.6
2022-12-25T21:02:45.458Z,-0.5
2022-12-25T21:07:43.840Z,-0.6
2022-12-25T21:12:42.169Z,-0.7
2022-12-25T21:17:40.570Z,-0.8
2022-12-25T21:22:39.096Z,-0.8
2022-12-25T21:27:37.820Z,-0.8
2022-12-25T21:32:36.240Z,-0.9
2022-12-25T21:37:34.633Z,-0.9
2022-12-25T21:42:32.850Z,-1
2022-12-25T21:48:00.480Z,-1
2022-12-25T21:52:30.100Z,-1
2022-12-25T21:57:28.627Z,-1.1
2022-12-25T22:02:27.420Z,-1.3
2022-12-25T22:07:25.682Z,-1.2
2022-12-25T22:12:27.337Z,-1.4
2022-12-25T22:17:22.481Z,-1.5
2022-12-25T22:22:21.140Z,-1.5
2022-12-25T22:27:19.627Z,-1.6
2022-12-25T22:32:18.171Z,-1.6
2022-12-25T22:37:16.485Z,-1.6
2022-12-25T22:42:14.944Z,-1.7
2022-12-25T22:47:13.541Z,-1.7
2022-12-25T22:52:11.696Z,-1.6
2022-12-25T22:57:09.866Z,-1.6
2022-12-25T23:02:08.265Z,-1.7
2022-12-25T23:07:06.343Z,-1.8
2022-12-25T23:12:04.790Z,-1.8
2022-12-25T23:17:03.050Z,-1.8
2022-12-25T23:22:01.588Z,-1.8
2022-12-25T23:26:59.711Z,-1.9
2022-12-25T23:31:57.883Z,-1.9
2022-12-25T23:36:56.100Z,-2
2022-12-25T23:41:54.151Z,-2.1
2022-12-25T23:46:53.596Z,-2.2
2022-12-25T23:51:54.318Z,-2.2
2022-12-25T23:56:51.882Z,-2.3
